Krypton’s ATC Tracking Thread - [CLOSED] @ N/A

Open @ LSZH

Tower& Ground

Runways in use: 14, 16 & 28 landings | 16 & 28 Takeoffs

Notams:

File a flight plan prior to requesting taxi unless doing patterns.

1 Like

LSZH Now Closed

Open @ RKSI

Tower & Ground

Runways in use: 16, 15R & 15L landings | 16, 15R & 15L Takeoffs

Notams:

File a flight plan prior to requesting taxi unless doing patterns.

RKSI ATIS

RKSI 210230Z 16010KT 4200 HZ NSC 07/01 Q1032 NOSIG

You have information ALPHA

RKSI ATIS

RKSI 210230Z 15011KT 4500 HZ FEW040 BKN160 08/01 Q1031 NOSIG No pattern work allowed File FPL prior to containing ATC

You have information BRAVO

May want to add “no pattern work allowed” and “file FPL prior to contacting ATC” if you’re incorporating ATIS. Just saying. :)

1 Like

RKSI ATIS

RKSI 210330Z 15010KT 5000 HZ SCT030 BKN160 08/01 Q1031 NOSIG No pattern work allowed File FPL prior to containing ATC

You have information CHARLIE

RKSI Now Closed, good day!

Open @KJFK

Tower & Ground

Runways in use: 13L, 13R, 22L & 22RL landings | 13L, 13R & 22RL Takeoffs

Notams:

File a flight plan prior to requesting taxi unless doing patterns.

KJFK ATIS

KJFK 240051Z 19015KT 10SM CLR 06/01 A3011 RMK AO2 SLP194 T00560011 File FPL prior to containing ATC

You have information ALPHA

1 Like

I’ll come do some patterns

2 Likes

Expect me. Show-Me 20

1 Like

Take that back. Internet cut out

1 Like

KJFK ATIS

KJFK 240151Z 20013KT 10SM CLR 06/00 A3012 RMK AO2 SLP197 T00560000 File FPL prior to containing ATC

You have information BRAVO

KJFK Now Closed, good day!

Open @ CYYZ

Tower & Ground

Runways in use: 06L, 06R & 05 landings | 06L, 06R, 33L, 33R & 05 Takeoffs

CYYZ ATIS

CYYZ 250100Z 04009KT 15SM OVC150 05/M02 A2992 RMK AS8 SLP138 File FPL prior to containing ATC

You have information ALPHA

You still open?

1 Like

CYYZ ATIS

CYYZ 250200Z 05009KT 15SM OVC120 05/M02 A2992 RMK AS8 SLP140 File FPL prior to containing ATC

You have information BRAVO

1 Like

I’ll take that as a yes. :)

I’ll stop by now